Time;durP1;ratioP1;P1;durP2;ratioP2;P2;SDS_P1;SDS_P2;PMS_P1;PMS_P2;Temp;Humidity;BMP_temperature;BMP_pressure;BME280_temperature;BME280_humidity;BME280_pressure;Samples;Min_cycle;Max_cycle;Signal;HPM_P1;HPM_P2
2023/05/20 00:00:47;;;;;;;17.85;4.32;;;12.10;99.90;;;;;;5079538;28;20048;-60
2023/05/20 00:03:15;;;;;;;15.30;4.70;;;12.10;99.90;;;;;;5073393;28;20056;-61
2023/05/20 00:05:42;;;;;;;19.63;4.65;;;12.10;99.90;;;;;;5063923;28;20060;-60
2023/05/20 00:08:09;;;;;;;13.15;4.50;;;12.00;99.90;;;;;;5071665;28;20041;-60
2023/05/20 00:10:37;;;;;;;14.77;4.93;;;12.00;99.90;;;;;;5080854;28;20051;-60
2023/05/20 00:13:03;;;;;;;14.50;3.53;;;12.00;99.90;;;;;;5069717;28;20052;-61
2023/05/20 00:15:30;;;;;;;12.18;4.25;;;11.90;99.90;;;;;;5068240;28;20110;-60
2023/05/20 00:17:59;;;;;;;11.07;4.35;;;11.90;99.90;;;;;;5061071;28;20178;-60
2023/05/20 00:20:26;;;;;;;13.20;4.65;;;11.90;99.90;;;;;;5076340;28;20169;-61
2023/05/20 00:22:53;;;;;;;14.50;3.72;;;11.90;99.90;;;;;;5074969;28;20086;-60
2023/05/20 00:25:20;;;;;;;19.00;6.07;;;11.80;99.90;;;;;;5076729;28;20095;-60
2023/05/20 00:27:46;;;;;;;13.98;5.22;;;11.80;99.90;;;;;;5069212;28;20052;-60
2023/05/20 00:30:13;;;;;;;10.77;4.72;;;11.70;99.90;;;;;;5069130;28;20114;-60
2023/05/20 00:32:40;;;;;;;19.40;5.40;;;11.70;99.90;;;;;;5069304;28;20127;-60
2023/05/20 00:35:08;;;;;;;14.13;4.20;;;11.70;99.90;;;;;;5070812;28;20479;-61
2023/05/20 00:37:34;;;;;;;13.85;4.78;;;11.60;99.90;;;;;;5070860;28;20056;-60
2023/05/20 00:40:02;;;;;;;18.98;6.00;;;11.50;99.90;;;;;;5070517;28;20106;-60
2023/05/20 00:42:28;;;;;;;12.18;4.53;;;11.50;99.90;;;;;;5070899;28;20037;-60
2023/05/20 00:44:55;;;;;;;17.42;4.65;;;11.50;99.90;;;;;;5070444;28;20044;-60
2023/05/20 00:47:31;;;;;;;13.80;3.78;;;11.50;99.90;;;;;;5070716;28;20049;-61
2023/05/20 00:49:58;;;;;;;9.40;4.57;;;11.40;99.90;;;;;;5070748;28;20059;-60
2023/05/20 00:52:25;;;;;;;10.82;4.03;;;11.40;99.90;;;;;;5063390;28;20109;-61
2023/05/20 00:54:52;;;;;;;9.63;4.15;;;11.30;99.90;;;;;;5057993;28;20048;-61
2023/05/20 00:57:18;;;;;;;10.70;4.40;;;11.30;99.90;;;;;;5067457;28;20048;-62
2023/05/20 00:59:45;;;;;;;14.35;5.03;;;11.30;99.90;;;;;;5079434;28;20041;-62
2023/05/20 01:02:12;;;;;;;14.23;5.22;;;11.30;99.90;;;;;;5070730;28;20466;-62
2023/05/20 01:04:39;;;;;;;11.45;4.38;;;11.20;99.90;;;;;;5076832;28;20052;-61
2023/05/20 01:07:06;;;;;;;12.98;4.63;;;11.20;99.90;;;;;;5070138;28;20458;-62
2023/05/20 01:09:32;;;;;;;12.40;4.47;;;11.10;99.90;;;;;;5070181;28;20048;-61
2023/05/20 01:12:10;;;;;;;12.52;4.53;;;11.10;99.90;;;;;;5064284;28;20106;-61
2023/05/20 01:14:50;;;;;;;14.52;5.20;;;11.10;99.90;;;;;;5073969;28;20082;-62
2023/05/20 01:17:19;;;;;;;14.32;4.63;;;11.10;99.90;;;;;;5068044;28;20098;-63
2023/05/20 01:19:47;;;;;;;8.90;4.38;;;11.00;99.90;;;;;;5043590;28;20588;-61
2023/05/20 01:22:14;;;;;;;12.90;4.85;;;11.00;99.90;;;;;;5070475;28;20048;-61
2023/05/20 01:24:42;;;;;;;18.95;4.90;;;10.90;99.90;;;;;;5070078;28;20054;-61
2023/05/20 01:27:10;;;;;;;17.75;7.30;;;10.90;99.90;;;;;;5069811;28;20102;-60
2023/05/20 01:29:37;;;;;;;14.18;4.65;;;10.80;99.90;;;;;;5080021;28;20044;-60
2023/05/20 01:32:11;;;;;;;10.38;3.95;;;10.70;99.90;;;;;;5070145;28;20072;-61
2023/05/20 01:34:38;;;;;;;12.50;4.05;;;10.70;99.90;;;;;;5042847;28;20052;-61
2023/05/20 01:37:05;;;;;;;12.40;5.32;;;10.60;99.90;;;;;;5064195;28;20809;-61
2023/05/20 01:39:33;;;;;;;11.02;3.70;;;10.50;99.90;;;;;;5069984;28;20075;-61
2023/05/20 01:42:00;;;;;;;10.90;4.00;;;10.50;99.90;;;;;;5075821;28;20041;-61
2023/05/20 01:44:27;;;;;;;17.48;5.97;;;10.50;99.90;;;;;;5039108;28;20117;-61
2023/05/20 01:46:54;;;;;;;11.02;5.03;;;10.40;99.90;;;;;;5079367;28;20036;-61
2023/05/20 01:49:21;;;;;;;13.55;5.13;;;10.40;99.90;;;;;;5069650;28;20080;-61
2023/05/20 01:51:47;;;;;;;10.50;4.45;;;10.40;99.90;;;;;;5069671;28;20052;-59
2023/05/20 01:54:14;;;;;;;11.90;4.70;;;10.30;99.90;;;;;;5069956;28;20040;-61
2023/05/20 01:56:41;;;;;;;13.38;4.57;;;10.30;99.90;;;;;;5069452;28;20062;-60
2023/05/20 01:59:08;;;;;;;17.77;6.07;;;10.30;99.90;;;;;;5069906;28;20037;-60
2023/05/20 02:01:35;;;;;;;17.73;5.43;;;10.30;99.90;;;;;;5074929;28;20066;-60
2023/05/20 02:04:01;;;;;;;9.60;4.53;;;10.30;99.90;;;;;;5069901;28;20076;-60
2023/05/20 02:06:28;;;;;;;9.13;5.25;;;10.30;99.90;;;;;;5069563;28;20114;-60
2023/05/20 02:08:55;;;;;;;14.38;4.45;;;10.30;99.90;;;;;;5070213;28;20102;-61
2023/05/20 02:11:22;;;;;;;16.40;4.15;;;10.20;99.90;;;;;;5069701;28;20052;-61
2023/05/20 02:13:50;;;;;;;17.80;5.50;;;10.20;99.90;;;;;;5069246;28;20076;-60
2023/05/20 02:16:17;;;;;;;13.88;5.10;;;10.20;99.90;;;;;;5069318;28;20503;-59
2023/05/20 02:18:43;;;;;;;9.65;3.95;;;10.10;99.90;;;;;;5072004;28;20063;-60
2023/05/20 02:21:10;;;;;;;12.50;5.53;;;10.10;99.90;;;;;;5069452;28;20451;-60
2023/05/20 02:23:37;;;;;;;14.35;5.20;;;10.10;99.90;;;;;;5068985;28;20505;-60
2023/05/20 02:26:04;;;;;;;11.77;4.38;;;10.10;99.90;;;;;;5069057;28;20055;-61
2023/05/20 02:28:31;;;;;;;17.30;4.60;;;10.10;99.90;;;;;;5069119;28;20075;-60
2023/05/20 02:30:57;;;;;;;17.98;5.80;;;10.00;99.90;;;;;;5069136;28;20094;-60
2023/05/20 02:33:27;;;;;;;9.63;4.32;;;10.00;99.90;;;;;;5068797;28;20044;-61
2023/05/20 02:35:54;;;;;;;13.95;5.97;;;10.00;99.90;;;;;;5069053;28;20136;-61
2023/05/20 02:38:21;;;;;;;14.48;5.20;;;10.00;99.90;;;;;;5068970;28;20415;-60
2023/05/20 02:40:48;;;;;;;12.60;3.95;;;9.80;99.90;;;;;;5069050;28;20087;-61
2023/05/20 02:43:15;;;;;;;12.45;5.22;;;9.80;99.90;;;;;;5068685;28;20098;-61
2023/05/20 02:45:41;;;;;;;14.35;5.15;;;9.70;99.90;;;;;;5069332;28;20048;-61
2023/05/20 02:48:09;;;;;;;11.10;4.57;;;9.70;99.90;;;;;;5068534;28;20036;-61
2023/05/20 02:50:39;;;;;;;12.30;3.97;;;9.70;99.90;;;;;;5068829;28;20102;-61
2023/05/20 02:53:06;;;;;;;17.23;5.20;;;9.80;99.90;;;;;;5074800;28;20040;-61
2023/05/20 02:55:34;;;;;;;9.93;5.43;;;9.70;99.90;;;;;;5068653;28;20036;-60
2023/05/20 02:58:01;;;;;;;12.00;4.82;;;9.70;99.90;;;;;;5068635;28;20044;-62
2023/05/20 03:00:30;;;;;;;9.32;4.50;;;9.70;99.90;;;;;;5068819;28;20051;-61
2023/05/20 03:02:59;;;;;;;7.93;4.45;;;9.70;99.90;;;;;;5068641;28;20036;-59
2023/05/20 03:05:26;;;;;;;12.38;5.18;;;9.70;99.90;;;;;;5068292;28;20503;-59
2023/05/20 03:07:54;;;;;;;10.27;4.55;;;9.70;99.90;;;;;;5068351;28;20090;-64
2023/05/20 03:10:21;;;;;;;23.83;5.60;;;9.70;99.90;;;;;;5068642;28;20506;-61
2023/05/20 03:12:47;;;;;;;16.77;5.22;;;9.70;99.90;;;;;;5055704;28;20044;-61
2023/05/20 03:15:14;;;;;;;18.63;5.57;;;9.80;99.90;;;;;;5068030;28;20045;-61
2023/05/20 03:17:41;;;;;;;15.32;4.78;;;9.70;99.90;;;;;;5068509;28;20103;-60
2023/05/20 03:20:11;;;;;;;12.77;4.85;;;9.70;99.90;;;;;;5068255;28;20068;-60
2023/05/20 03:22:37;;;;;;;16.33;6.88;;;9.60;99.90;;;;;;5068140;28;20082;-60
2023/05/20 03:25:05;;;;;;;11.48;5.13;;;9.70;99.90;;;;;;5070292;28;20079;-61
2023/05/20 03:27:33;;;;;;;12.13;5.05;;;9.80;99.90;;;;;;5067995;28;20045;-60
2023/05/20 03:30:00;;;;;;;14.07;5.53;;;9.90;99.90;;;;;;5066881;28;20392;-61
2023/05/20 03:32:27;;;;;;;19.15;4.85;;;9.90;99.90;;;;;;5068286;28;20067;-61
2023/05/20 03:34:53;;;;;;;14.45;4.90;;;10.00;99.90;;;;;;5067622;28;20059;-61
2023/05/20 03:37:20;;;;;;;19.83;4.88;;;10.10;99.90;;;;;;5068389;28;20044;-61
2023/05/20 03:39:47;;;;;;;13.15;4.85;;;10.20;99.90;;;;;;5067997;28;20504;-61
2023/05/20 03:42:14;;;;;;;13.52;4.95;;;10.20;99.90;;;;;;5068308;28;20045;-61
2023/05/20 03:44:40;;;;;;;13.48;4.47;;;10.30;99.90;;;;;;5067814;28;20052;-60
2023/05/20 03:47:07;;;;;;;14.93;4.55;;;10.40;99.90;;;;;;5068244;28;20553;-60
2023/05/20 03:49:34;;;;;;;11.57;4.30;;;10.40;99.90;;;;;;5062620;28;20048;-60
2023/05/20 03:52:02;;;;;;;16.25;5.97;;;10.40;99.90;;;;;;5068243;28;20094;-60
2023/05/20 03:54:30;;;;;;;10.77;4.18;;;10.50;99.90;;;;;;5067770;28;20048;-60
2023/05/20 03:56:57;;;;;;;14.23;5.40;;;10.50;99.90;;;;;;5068096;28;20044;-61
2023/05/20 03:59:23;;;;;;;11.10;4.95;;;10.50;99.90;;;;;;5067943;28;20044;-60
2023/05/20 04:01:50;;;;;;;30.52;7.10;;;10.40;99.90;;;;;;5068123;28;20316;-60
2023/05/20 04:04:17;;;;;;;23.85;7.32;;;10.50;99.90;;;;;;5065257;28;20044;-61
2023/05/20 04:06:45;;;;;;;17.75;5.60;;;10.50;99.90;;;;;;5067525;28;20075;-60
2023/05/20 04:09:12;;;;;;;15.80;5.70;;;10.50;99.90;;;;;;5079818;28;20049;-60
2023/05/20 04:11:39;;;;;;;11.68;5.60;;;10.50;99.90;;;;;;5078245;28;20041;-61
2023/05/20 04:14:06;;;;;;;15.30;5.57;;;10.40;99.90;;;;;;5068035;28;20048;-60
2023/05/20 04:16:33;;;;;;;23.27;6.43;;;10.50;99.90;;;;;;5067619;28;20045;-60
2023/05/20 04:19:01;;;;;;;14.10;5.80;;;10.40;99.90;;;;;;5058718;28;20128;-60
2023/05/20 04:21:28;;;;;;;15.43;5.40;;;10.40;99.90;;;;;;5067688;28;20123;-60
2023/05/20 04:23:55;;;;;;;14.60;5.28;;;10.40;99.90;;;;;;5068275;28;20446;-60
2023/05/20 04:26:21;;;;;;;14.48;5.63;;;10.40;99.90;;;;;;5067376;28;20040;-59
2023/05/20 04:28:48;;;;;;;18.90;7.68;;;10.50;99.90;;;;;;5067947;28;20108;-60
2023/05/20 04:31:15;;;;;;;17.05;7.43;;;10.50;99.90;;;;;;5072602;28;20048;-60
2023/05/20 04:33:43;;;;;;;12.30;5.85;;;10.50;99.90;;;;;;5067763;28;20044;-60
2023/05/20 04:36:14;;;;;;;22.25;6.68;;;10.50;99.90;;;;;;5067574;28;20051;-60
2023/05/20 04:38:43;;;;;;;14.48;6.07;;;10.50;99.90;;;;;;5067900;28;20051;-60
2023/05/20 04:41:10;;;;;;;18.35;6.22;;;10.50;99.90;;;;;;5071023;28;20041;-59
2023/05/20 04:43:38;;;;;;;17.50;6.65;;;10.50;99.90;;;;;;5071082;28;20036;-60
2023/05/20 04:46:05;;;;;;;20.15;7.13;;;10.50;99.90;;;;;;5071614;28;20045;-60
2023/05/20 04:48:32;;;;;;;13.25;6.68;;;10.50;99.90;;;;;;5071289;28;20140;-60
2023/05/20 04:50:59;;;;;;;17.65;6.55;;;10.50;99.90;;;;;;5071255;28;20049;-60
2023/05/20 04:53:26;;;;;;;14.20;6.35;;;10.50;99.90;;;;;;5071202;28;20040;-59
2023/05/20 04:55:56;;;;;;;13.48;6.50;;;10.60;99.90;;;;;;5070989;28;20040;-59
2023/05/20 04:58:23;;;;;;;16.33;6.70;;;10.60;99.90;;;;;;5070724;28;20054;-62
2023/05/20 05:00:50;;;;;;;22.13;6.93;;;10.60;99.90;;;;;;5070906;28;20064;-61
2023/05/20 05:03:17;;;;;;;29.08;9.23;;;10.70;99.90;;;;;;5070475;28;20495;-61
2023/05/20 05:05:44;;;;;;;17.25;6.32;;;10.70;99.90;;;;;;5070829;28;20060;-60
2023/05/20 05:08:11;;;;;;;16.58;7.00;;;10.80;99.90;;;;;;5070323;28;20060;-60
2023/05/20 05:10:37;;;;;;;17.27;6.40;;;10.80;99.90;;;;;;5062645;28;20055;-60
2023/05/20 05:13:04;;;;;;;11.63;6.45;;;10.90;99.90;;;;;;5078284;28;20102;-61
2023/05/20 05:15:31;;;;;;;19.25;6.70;;;10.90;99.90;;;;;;5070530;28;20501;-61
2023/05/20 05:17:58;;;;;;;14.00;6.57;;;10.80;99.90;;;;;;5070444;28;20045;-61
2023/05/20 05:20:25;;;;;;;15.63;6.50;;;10.80;99.90;;;;;;5070802;28;20055;-61
2023/05/20 05:22:52;;;;;;;16.10;7.15;;;10.80;99.90;;;;;;5070217;28;20087;-60
2023/05/20 05:25:19;;;;;;;19.25;7.13;;;10.80;99.90;;;;;;5070411;28;20040;-60
2023/05/20 05:27:48;;;;;;;16.63;6.65;;;10.90;99.90;;;;;;5070479;28;20045;-60
2023/05/20 05:30:15;;;;;;;16.95;7.40;;;10.90;99.90;;;;;;5070665;28;20040;-61
2023/05/20 05:32:41;;;;;;;16.73;6.75;;;10.90;99.90;;;;;;5070424;28;20456;-59
2023/05/20 05:35:08;;;;;;;17.67;7.47;;;10.90;99.90;;;;;;5070299;28;20512;-59
2023/05/20 05:37:35;;;;;;;14.68;6.82;;;10.90;99.90;;;;;;5069816;28;20040;-60
2023/05/20 05:40:02;;;;;;;17.95;6.72;;;11.00;99.90;;;;;;5070083;28;20094;-60
2023/05/20 05:42:29;;;;;;;27.38;8.23;;;11.00;99.90;;;;;;5070500;28;20086;-60
2023/05/20 05:44:56;;;;;;;15.90;6.55;;;11.00;99.90;;;;;;5069900;28;20091;-61
2023/05/20 05:47:23;;;;;;;20.02;7.05;;;11.00;99.90;;;;;;5070094;28;20044;-61
2023/05/20 05:49:50;;;;;;;20.95;8.00;;;11.00;99.90;;;;;;5069930;28;20144;-61
2023/05/20 05:52:17;;;;;;;15.43;6.95;;;11.10;99.90;;;;;;5069648;28;20094;-60
2023/05/20 05:54:44;;;;;;;17.20;7.65;;;11.10;99.90;;;;;;5069448;28;20076;-61
2023/05/20 05:57:10;;;;;;;26.55;8.40;;;11.10;99.90;;;;;;5070310;28;20145;-60
2023/05/20 05:59:37;;;;;;;18.98;7.50;;;11.20;99.90;;;;;;5069846;28;20795;-60
2023/05/20 06:02:04;;;;;;;21.88;8.95;;;11.20;99.90;;;;;;5070225;28;20048;-61
2023/05/20 06:04:31;;;;;;;26.08;7.15;;;11.20;99.90;;;;;;5069575;28;20049;-61
2023/05/20 06:06:58;;;;;;;21.10;7.13;;;11.30;99.90;;;;;;5069624;28;20454;-61
2023/05/20 06:09:24;;;;;;;22.25;7.03;;;11.30;99.90;;;;;;5069620;28;20060;-61
2023/05/20 06:11:51;;;;;;;16.17;7.43;;;11.30;99.90;;;;;;5069515;28;20089;-62
2023/05/20 06:14:18;;;;;;;26.92;7.70;;;11.30;99.90;;;;;;5069346;28;20041;-60
2023/05/20 06:16:45;;;;;;;13.20;6.68;;;11.30;99.90;;;;;;5069275;28;20557;-60
2023/05/20 06:19:11;;;;;;;16.27;6.47;;;11.40;99.90;;;;;;5069378;28;20044;-60
2023/05/20 06:21:38;;;;;;;24.70;8.50;;;11.40;99.90;;;;;;5069293;28;20500;-60
2023/05/20 06:24:05;;;;;;;16.33;7.15;;;11.50;99.90;;;;;;5068948;28;20488;-60
2023/05/20 06:26:32;;;;;;;23.73;8.20;;;11.50;99.90;;;;;;5069223;28;20453;-60
2023/05/20 06:28:59;;;;;;;22.40;7.57;;;11.50;99.90;;;;;;5068981;28;20674;-60
2023/05/20 06:31:26;;;;;;;16.73;6.95;;;11.50;99.90;;;;;;5062220;28;20044;-60
2023/05/20 06:33:53;;;;;;;21.95;7.20;;;11.50;99.90;;;;;;5069307;28;20044;-60
2023/05/20 06:36:19;;;;;;;22.10;8.73;;;11.50;99.90;;;;;;5065102;28;20044;-60
2023/05/20 06:38:46;;;;;;;18.25;7.32;;;11.60;99.90;;;;;;5058639;28;20048;-60
2023/05/20 06:41:13;;;;;;;16.90;7.35;;;11.70;99.90;;;;;;5068561;28;20053;-60
2023/05/20 06:43:40;;;;;;;17.55;6.78;;;11.70;99.90;;;;;;5069097;28;20080;-61
2023/05/20 06:46:06;;;;;;;22.00;6.68;;;11.80;99.90;;;;;;5068764;28;20051;-61
2023/05/20 06:48:33;;;;;;;18.25;7.30;;;11.80;99.90;;;;;;5068801;28;20052;-60
2023/05/20 06:51:00;;;;;;;15.48;7.03;;;11.80;99.90;;;;;;5068325;28;20355;-60
2023/05/20 06:53:27;;;;;;;16.38;6.82;;;12.00;99.90;;;;;;5068942;28;20114;-60
2023/05/20 06:55:57;;;;;;;22.45;7.00;;;12.00;99.90;;;;;;5068213;28;20048;-59
2023/05/20 06:58:23;;;;;;;24.17;7.55;;;12.10;99.90;;;;;;5068362;28;20049;-60
2023/05/20 07:00:50;;;;;;;19.42;8.07;;;12.20;99.90;;;;;;4715704;28;10000083;-60
2023/05/20 07:03:17;;;;;;;17.63;7.40;;;12.30;99.90;;;;;;5048808;28;20511;-59
2023/05/20 07:05:44;;;;;;;15.35;6.47;;;12.30;99.90;;;;;;5065135;28;20087;-59
2023/05/20 07:08:11;;;;;;;18.50;6.25;;;12.20;99.90;;;;;;5065270;28;20048;-59
2023/05/20 07:10:38;;;;;;;24.95;7.85;;;12.30;99.90;;;;;;5065578;28;20091;-65
2023/05/20 07:13:04;;;;;;;19.40;7.40;;;12.40;99.90;;;;;;5062016;28;20113;-59
2023/05/20 07:15:31;;;;;;;21.13;7.25;;;12.40;99.90;;;;;;5068780;28;20475;-60
2023/05/20 07:17:59;;;;;;;16.33;6.95;;;12.40;99.90;;;;;;5066783;28;20052;-60
2023/05/20 07:20:25;;;;;;;14.18;6.68;;;12.40;99.90;;;;;;5062615;28;20123;-59
2023/05/20 07:22:52;;;;;;;14.68;6.90;;;12.50;99.90;;;;;;5066524;28;20442;-61
2023/05/20 07:25:19;;;;;;;15.77;7.07;;;12.50;99.90;;;;;;5066813;28;20604;-60
2023/05/20 07:27:46;;;;;;;22.10;6.88;;;12.60;99.90;;;;;;5065245;28;20083;-61
2023/05/20 07:30:13;;;;;;;20.20;6.32;;;12.60;99.90;;;;;;5068517;28;20048;-61
2023/05/20 07:32:39;;;;;;;17.05;6.88;;;12.70;99.90;;;;;;5064637;28;20052;-60
2023/05/20 07:35:07;;;;;;;16.42;7.65;;;12.70;99.90;;;;;;5072562;28;20040;-61
2023/05/20 07:37:34;;;;;;;17.05;7.18;;;12.90;99.90;;;;;;5066055;28;20064;-60
2023/05/20 07:40:01;;;;;;;20.75;7.20;;;13.00;99.90;;;;;;5065102;28;20118;-61
2023/05/20 07:42:28;;;;;;;23.92;8.32;;;13.10;99.90;;;;;;5064930;28;20093;-61
2023/05/20 07:44:55;;;;;;;13.75;6.55;;;13.20;99.90;;;;;;5063139;28;20094;-60
2023/05/20 07:47:21;;;;;;;15.77;6.72;;;13.30;99.90;;;;;;5065504;28;20056;-61
2023/05/20 07:49:48;;;;;;;28.42;9.18;;;13.40;99.90;;;;;;5067759;28;20052;-60
2023/05/20 07:52:15;;;;;;;20.73;6.13;;;13.50;99.90;;;;;;5064654;28;21458;-61
2023/05/20 07:54:42;;;;;;;14.77;6.60;;;13.50;99.90;;;;;;5063651;28;20110;-61
2023/05/20 07:57:09;;;;;;;19.15;6.10;;;13.50;99.90;;;;;;5054294;28;20130;-60
2023/05/20 07:59:35;;;;;;;17.45;7.00;;;13.60;99.90;;;;;;5049214;28;20098;-62
2023/05/20 08:02:02;;;;;;;16.45;6.35;;;13.70;99.90;;;;;;5058043;28;20552;-61
2023/05/20 08:04:29;;;;;;;18.55;7.50;;;13.70;99.90;;;;;;5052410;28;20053;-61
2023/05/20 08:06:56;;;;;;;14.43;6.10;;;13.70;99.90;;;;;;5064629;28;20064;-60
2023/05/20 08:09:23;;;;;;;19.42;6.72;;;13.70;99.90;;;;;;5064352;28;20045;-60
2023/05/20 08:11:50;;;;;;;20.17;7.30;;;13.80;99.90;;;;;;5055676;28;20107;-60
2023/05/20 08:14:16;;;;;;;19.67;6.68;;;13.90;99.90;;;;;;5064224;28;20568;-61
2023/05/20 08:16:43;;;;;;;22.75;7.32;;;13.80;99.90;;;;;;5068770;28;20040;-61
2023/05/20 08:19:10;;;;;;;21.00;7.32;;;13.70;99.90;;;;;;5068597;28;20052;-59
2023/05/20 08:21:38;;;;;;;16.83;6.70;;;13.80;99.90;;;;;;5068641;28;20058;-61
2023/05/20 08:24:05;;;;;;;14.43;6.50;;;14.00;99.90;;;;;;5068507;28;20702;-60
2023/05/20 08:26:32;;;;;;;20.20;8.05;;;14.00;99.90;;;;;;5064943;28;20102;-61
2023/05/20 08:28:58;;;;;;;15.15;5.57;;;14.10;99.90;;;;;;5068198;28;20080;-60
2023/05/20 08:31:25;;;;;;;22.35;7.35;;;14.20;99.90;;;;;;5067835;28;20044;-60
2023/05/20 08:33:52;;;;;;;23.92;7.72;;;14.50;99.90;;;;;;5068108;28;20048;-60
2023/05/20 08:36:19;;;;;;;14.68;5.80;;;14.60;99.90;;;;;;5067159;28;20071;-60
2023/05/20 08:38:46;;;;;;;13.02;5.25;;;14.70;99.90;;;;;;5068389;28;20458;-60
2023/05/20 08:41:13;;;;;;;14.30;5.30;;;14.80;99.90;;;;;;5067680;28;20055;-60
2023/05/20 08:43:40;;;;;;;20.20;6.47;;;14.90;99.90;;;;;;5066765;28;20082;-59
2023/05/20 08:46:07;;;;;;;15.15;5.35;;;15.00;99.90;;;;;;5062212;28;20044;-60
2023/05/20 08:48:34;;;;;;;17.33;5.90;;;15.00;99.90;;;;;;5056573;28;20053;-61
2023/05/20 08:51:02;;;;;;;15.35;5.15;;;15.00;99.90;;;;;;5064983;28;20052;-61
2023/05/20 08:53:28;;;;;;;11.40;4.55;;;15.00;99.90;;;;;;5066199;28;20052;-61
2023/05/20 08:55:59;;;;;;;13.48;4.82;;;15.00;99.90;;;;;;5061056;28;20484;-60
2023/05/20 08:58:30;;;;;;;13.88;5.13;;;15.10;99.90;;;;;;5066888;28;20507;-60
2023/05/20 09:00:57;;;;;;;11.48;4.60;;;15.10;99.90;;;;;;5068068;28;20094;-61
2023/05/20 09:03:24;;;;;;;9.50;4.43;;;15.20;99.90;;;;;;5069216;28;20060;-62
2023/05/20 09:05:52;;;;;;;24.67;5.63;;;15.30;99.90;;;;;;5067285;28;20454;-60
2023/05/20 09:08:19;;;;;;;13.57;4.72;;;15.30;99.90;;;;;;5067477;28;20488;-61
2023/05/20 09:10:46;;;;;;;19.17;5.10;;;15.40;99.90;;;;;;5056080;28;20132;-61
2023/05/20 09:13:13;;;;;;;16.50;5.57;;;15.50;99.90;;;;;;5060836;28;20590;-61
2023/05/20 09:15:40;;;;;;;19.40;5.22;;;15.50;99.90;;;;;;5067390;28;20071;-61
2023/05/20 09:18:07;;;;;;;17.40;6.72;;;15.30;99.90;;;;;;5067617;28;20049;-62
2023/05/20 09:20:36;;;;;;;12.95;5.90;;;15.40;99.90;;;;;;5069946;28;20048;-61
2023/05/20 09:23:05;;;;;;;17.02;5.85;;;15.60;99.90;;;;;;5067969;28;20056;-61
2023/05/20 09:25:32;;;;;;;17.27;6.00;;;15.60;99.90;;;;;;5047010;28;20072;-61
2023/05/20 09:27:59;;;;;;;17.55;4.85;;;15.50;99.90;;;;;;5069064;28;20132;-61
2023/05/20 09:30:26;;;;;;;17.67;5.13;;;15.50;99.90;;;;;;5069826;28;20055;-61
2023/05/20 09:32:58;;;;;;;21.45;5.07;;;15.70;99.90;;;;;;5069559;28;20102;-60
2023/05/20 09:35:26;;;;;;;15.80;4.93;;;15.90;99.90;;;;;;5084123;28;20090;-60
2023/05/20 09:37:54;;;;;;;14.65;4.45;;;16.00;99.90;;;;;;5069813;28;20045;-61
2023/05/20 09:40:27;;;;;;;20.75;5.20;;;16.30;99.90;;;;;;5055143;28;20044;-60
2023/05/20 09:43:02;;;;;;;12.50;4.22;;;16.40;99.90;;;;;;5069606;28;20080;-60
2023/05/20 09:45:29;;;;;;;15.75;4.63;;;16.50;99.90;;;;;;5069921;28;20473;-61
2023/05/20 09:47:56;;;;;;;16.00;4.72;;;16.70;99.90;;;;;;5069091;28;20044;-61
2023/05/20 09:50:24;;;;;;;14.75;5.43;;;16.80;99.90;;;;;;5057346;28;20040;-60
2023/05/20 09:52:52;;;;;;;11.27;3.90;;;16.90;99.90;;;;;;5068204;28;20075;-61
2023/05/20 09:55:21;;;;;;;15.02;4.68;;;17.00;99.90;;;;;;5066076;28;20084;-61
2023/05/20 09:57:48;;;;;;;11.25;3.88;;;17.20;99.90;;;;;;5067850;28;20052;-60
2023/05/20 10:00:18;;;;;;;8.65;3.67;;;17.20;99.90;;;;;;5069490;28;20047;-61
2023/05/20 10:02:47;;;;;;;14.13;4.30;;;17.30;99.90;;;;;;5069665;28;20098;-60
2023/05/20 10:05:23;;;;;;;11.93;4.10;;;17.50;99.90;;;;;;5062761;28;20795;-63
2023/05/20 10:08:12;;;;;;;15.43;5.32;;;17.90;99.90;;;;;;5051798;28;20474;-61
2023/05/20 10:11:07;;;;;;;13.02;4.03;;;18.40;99.90;;;;;;5055952;28;20496;-61
2023/05/20 10:14:01;;;;;;;11.23;3.65;;;18.60;99.90;;;;;;5069527;28;20086;-61
2023/05/20 10:16:33;;;;;;;13.18;3.90;;;18.70;99.90;;;;;;5069598;28;20045;-60
2023/05/20 10:19:24;;;;;;;8.73;3.33;;;18.70;99.90;;;;;;5063624;28;20484;-69
2023/05/20 10:22:02;;;;;;;13.98;4.28;;;19.00;99.90;;;;;;5033621;28;20055;-61
2023/05/20 10:24:41;;;;;;;10.10;3.47;;;19.00;99.90;;;;;;5062426;28;20044;-61
2023/05/20 10:27:15;;;;;;;12.50;3.65;;;18.90;99.90;;;;;;5069332;28;20044;-61
2023/05/20 10:29:54;;;;;;;13.77;3.60;;;18.80;99.90;;;;;;5068374;28;20094;-61
2023/05/20 10:32:27;;;;;;;9.95;3.33;;;18.70;99.90;;;;;;5051912;28;20048;-61
2023/05/20 10:35:07;;;;;;;13.77;4.57;;;18.70;99.90;;;;;;5067924;28;20040;-61
2023/05/20 10:37:42;;;;;;;11.93;3.08;;;19.10;99.90;;;;;;5068735;28;20048;-61
2023/05/20 10:40:13;;;;;;;16.92;4.25;;;19.40;99.90;;;;;;5068641;28;20048;-61
2023/05/20 10:42:40;;;;;;;10.68;3.63;;;19.30;99.90;;;;;;5068903;28;20051;-61
2023/05/20 10:45:07;;;;;;;16.33;3.95;;;19.00;99.90;;;;;;5068473;28;20044;-61
2023/05/20 10:47:34;;;;;;;10.98;3.08;;;19.10;99.90;;;;;;5068762;28;20045;-61
2023/05/20 10:50:03;;;;;;;14.95;3.15;;;19.20;99.90;;;;;;5068347;28;20484;-61
2023/05/20 10:52:36;;;;;;;13.02;3.38;;;19.20;99.90;;;;;;5056349;28;20069;-62
2023/05/20 10:55:03;;;;;;;8.65;3.30;;;19.20;99.90;;;;;;5071821;28;20709;-59
2023/05/20 10:57:33;;;;;;;7.32;2.90;;;19.20;99.90;;;;;;5068598;28;20049;-60
2023/05/20 11:00:00;;;;;;;13.13;3.10;;;19.20;99.90;;;;;;5068411;28;20600;-60
2023/05/20 11:02:27;;;;;;;11.55;3.20;;;19.20;99.90;;;;;;5068358;28;20109;-61
2023/05/20 11:04:58;;;;;;;9.63;2.92;;;19.20;99.90;;;;;;5068262;28;20051;-61
2023/05/20 11:07:26;;;;;;;7.40;3.15;;;19.30;99.90;;;;;;5073741;28;20063;-61
2023/05/20 11:09:57;;;;;;;11.15;2.33;;;19.30;99.90;;;;;;5066223;28;20102;-61
2023/05/20 11:12:25;;;;;;;17.88;2.85;;;19.40;99.90;;;;;;5068086;28;20056;-61
2023/05/20 11:14:52;;;;;;;9.45;2.38;;;19.30;99.90;;;;;;5068093;28;20056;-62
2023/05/20 11:17:19;;;;;;;12.57;2.78;;;19.30;99.90;;;;;;5055172;28;20158;-62
2023/05/20 11:19:46;;;;;;;12.50;3.40;;;19.30;99.90;;;;;;5067798;28;20101;-60
2023/05/20 11:22:13;;;;;;;9.07;3.10;;;19.20;98.40;;;;;;5068567;28;20044;-64
2023/05/20 11:24:40;;;;;;;12.70;3.10;;;19.10;99.00;;;;;;5079649;28;20047;-60
2023/05/20 11:27:07;;;;;;;7.93;2.58;;;19.10;99.60;;;;;;5069235;28;20049;-61
2023/05/20 11:29:34;;;;;;;17.58;3.47;;;19.00;99.80;;;;;;5083347;28;20056;-61
2023/05/20 11:32:00;;;;;;;12.00;2.90;;;19.00;99.90;;;;;;5062085;28;20117;-61
2023/05/20 11:34:37;;;;;;;10.52;3.15;;;19.00;99.60;;;;;;5065742;28;20048;-62
2023/05/20 11:37:08;;;;;;;9.32;2.75;;;19.00;98.90;;;;;;5057277;28;20056;-61
2023/05/20 11:39:36;;;;;;;10.75;2.33;;;18.80;99.00;;;;;;5049362;28;20049;-61
2023/05/20 11:42:05;;;;;;;10.85;2.97;;;18.80;99.50;;;;;;5051160;28;20055;-61
2023/05/20 11:44:32;;;;;;;10.60;3.35;;;18.90;98.90;;;;;;5034800;28;20052;-61
2023/05/20 11:47:00;;;;;;;11.65;2.83;;;19.00;99.40;;;;;;5078049;28;20102;-61
2023/05/20 11:49:27;;;;;;;11.32;3.03;;;19.00;99.30;;;;;;5070513;28;20040;-62
2023/05/20 11:51:55;;;;;;;14.38;3.30;;;18.90;99.10;;;;;;5073875;28;20592;-60
2023/05/20 11:54:23;;;;;;;11.77;2.70;;;18.90;98.40;;;;;;5043989;28;20129;-61
2023/05/20 11:56:50;;;;;;;10.55;2.67;;;18.90;97.30;;;;;;4721881;28;9999998;-60
2023/05/20 11:59:17;;;;;;;7.40;2.30;;;19.10;97.70;;;;;;5072088;28;20423;-60
2023/05/20 12:01:44;;;;;;;9.32;2.75;;;19.30;97.50;;;;;;5073289;28;20048;-61
2023/05/20 12:04:15;;;;;;;11.70;2.90;;;19.60;97.30;;;;;;5063432;28;20044;-62
2023/05/20 12:06:42;;;;;;;9.65;3.17;;;19.60;96.20;;;;;;5074555;28;20488;-61
2023/05/20 12:09:10;;;;;;;8.23;3.05;;;19.60;96.40;;;;;;5074489;28;20106;-62
2023/05/20 12:11:40;;;;;;;7.70;2.75;;;19.70;96.40;;;;;;5074150;28;20048;-61
2023/05/20 12:14:07;;;;;;;7.70;2.10;;;19.70;96.60;;;;;;5081009;28;20040;-61
2023/05/20 12:16:35;;;;;;;6.82;2.28;;;19.70;96.60;;;;;;5074203;28;20044;-61
2023/05/20 12:19:02;;;;;;;9.90;2.72;;;19.80;96.80;;;;;;5074170;28;20074;-61
2023/05/20 12:21:30;;;;;;;8.20;2.10;;;20.00;96.00;;;;;;5074346;28;20044;-61
2023/05/20 12:23:58;;;;;;;13.00;2.40;;;19.90;95.70;;;;;;5071940;28;20048;-61
2023/05/20 12:26:26;;;;;;;10.32;3.00;;;19.90;94.80;;;;;;5074263;28;20491;-62
2023/05/20 12:28:53;;;;;;;8.75;2.60;;;20.00;94.90;;;;;;5060803;28;20612;-62
2023/05/20 12:31:20;;;;;;;5.00;2.25;;;20.20;93.70;;;;;;5073876;28;20118;-65
2023/05/20 12:33:47;;;;;;;10.95;2.83;;;20.10;93.90;;;;;;5073805;28;20048;-61
2023/05/20 12:36:14;;;;;;;10.95;3.35;;;20.10;94.10;;;;;;5073928;28;20060;-60
2023/05/20 12:38:40;;;;;;;6.15;2.25;;;20.10;94.00;;;;;;5060915;28;20045;-60
2023/05/20 12:41:07;;;;;;;9.43;2.83;;;20.20;94.10;;;;;;5084215;28;20048;-60